Rocky Mount, MO (65072)

9:33 PM CDT on March 29, 2017 (GMT -0500)
Four Seasons, Lake Ozark | | Change Station
Active Advisory: Tornado Watch

Elev 760 ft 38.22 °N, 92.71 °W | Updated 1 minute ago

Overcast
Overcast
62.7 °F
Feels Like 62.7 °F
N
2.7
Wind Variable Wind from SSE
Gusts 2.7 mph

Today
High -- | Low -- °F
--% Chance of Precip.
Yesterday
High -- | Low -- °F
Precip. -- in
Pressure 29.03 in
Visibility 10.0 miles
Clouds Few 1400 ft
Mostly Cloudy 3000 ft
Overcast 4700 ft
Dew Point 59 °F
Humidity 88%
Rainfall 0.07 in
Snow Depth Not available.
7:00 AM 7:31 PM
Waxing Crescent, 6% visible
METAR KAIZ 300156Z AUTO 13007G14KT 10SM VCTS FEW014 BKN030 OVC047 19/16 A2966 RMK AO2 WSHFT 0120 LTG DSNT ALQDS TSB04E28B30RAB06E39 SLP830 T01890161 PNO $
Pressure 29.03 in
Visibility 10.0 miles
Clouds Few 1400 ft
Mostly Cloudy 3000 ft
Overcast 4700 ft
Dew Point 59 °F
Humidity 88%
Rainfall 0.07 in
Snow Depth Not available.
7:00 AM 7:31 PM
Waxing Crescent, 6% visible
METAR KAIZ 300156Z AUTO 13007G14KT 10SM VCTS FEW014 BKN030 OVC047 19/16 A2966 RMK AO2 WSHFT 0120 LTG DSNT ALQDS TSB04E28B30RAB06E39 SLP830 T01890161 PNO $

Get Your Daily Forecast Email!

Thanks for signing up!

Be on the lookout for a verification email in your inbox.

You'll start receiving severe weather alerts in your inbox..

×

10-Day Weather Forecast

Almanac

Astronomy

Mar. 29, 2017 Rise Set
Actual Time
Civil Twilight
Nautical Twilight
Astronomical Twilight
Moon
Length of Visible Light
Length of Day
Tomorrow will be .
, % of the Moon is Illuminated

Today's Extremes

State Highs State Lows

Community

WunderPhotos

Upload Photos

1,962,540 photos uploaded!

WunderBlog® & News

Nearby

Air Quality

  Air Quality AQ Index Pollutant
Not available.

Snow Depth

Station Depth Elevation

Earthquake Activity

City Distance Mag. Time & Date
Minimum magnitude displayed is 2.5.

Earthquake Activity

City Distance Mag. Time & Date
Minimum magnitude displayed is 2.5.

Coastal Water Temperatures

Place Temperature

Stations

Nearby Weather Stations

Station Location Temp. Windchill Dew Point Humidity Wind Precip. Elev Updated Type
                   

Watches & Warnings

Tornado Watch
Issued: 9:24 PM CDT Mar. 29, 2017 – National Weather Service

Tornado Watch 99 remains in effect until 1100 PM CDT for the
following locations


MO
. Missouri counties included are

Barry Benton Camden
Cedar Christian Dade
Dallas Dent Douglas
Greene Hickory Howell
Laclede Lawrence Maries
Miller Morgan Oregon
Ozark Phelps Polk
Pulaski St. Clair Shannon
stone Taney Texas
Webster Wright